sensor_id;sensor_type;location;lat;lon;timestamp;P1;durP1;ratioP1;P2;durP2;ratioP2
50319;SDS011;36226;53.464;9.852;2023-02-28T00:00:17;4.20;;;1.50;;
50319;SDS011;36226;53.464;9.852;2023-02-28T00:02:43;3.80;;;1.67;;
50319;SDS011;36226;53.464;9.852;2023-02-28T00:05:10;11.85;;;1.70;;
50319;SDS011;36226;53.464;9.852;2023-02-28T00:07:36;3.30;;;1.52;;
50319;SDS011;36226;53.464;9.852;2023-02-28T00:10:02;3.50;;;1.45;;
50319;SDS011;36226;53.464;9.852;2023-02-28T00:12:32;3.45;;;1.48;;
50319;SDS011;36226;53.464;9.852;2023-02-28T00:15:01;1.85;;;1.08;;
50319;SDS011;36226;53.464;9.852;2023-02-28T00:17:27;4.25;;;1.60;;
50319;SDS011;36226;53.464;9.852;2023-02-28T00:19:53;4.60;;;1.50;;
50319;SDS011;36226;53.464;9.852;2023-02-28T00:22:19;2.97;;;1.40;;
50319;SDS011;36226;53.464;9.852;2023-02-28T00:24:46;5.10;;;1.60;;
50319;SDS011;36226;53.464;9.852;2023-02-28T00:27:12;3.67;;;1.30;;
50319;SDS011;36226;53.464;9.852;2023-02-28T00:29:37;3.80;;;1.50;;
50319;SDS011;36226;53.464;9.852;2023-02-28T00:32:03;2.55;;;1.27;;
50319;SDS011;36226;53.464;9.852;2023-02-28T00:34:29;3.20;;;1.33;;
50319;SDS011;36226;53.464;9.852;2023-02-28T00:36:55;7.32;;;1.70;;
50319;SDS011;36226;53.464;9.852;2023-02-28T00:39:20;3.85;;;1.83;;
50319;SDS011;36226;53.464;9.852;2023-02-28T00:41:45;4.47;;;1.88;;
50319;SDS011;36226;53.464;9.852;2023-02-28T00:44:11;3.13;;;1.77;;
50319;SDS011;36226;53.464;9.852;2023-02-28T00:46:36;4.47;;;1.80;;
50319;SDS011;36226;53.464;9.852;2023-02-28T00:49:02;5.65;;;1.80;;
50319;SDS011;36226;53.464;9.852;2023-02-28T00:51:27;3.55;;;1.90;;
50319;SDS011;36226;53.464;9.852;2023-02-28T00:53:53;7.15;;;1.95;;
50319;SDS011;36226;53.464;9.852;2023-02-28T00:56:18;6.13;;;2.28;;
50319;SDS011;36226;53.464;9.852;2023-02-28T00:58:44;5.90;;;2.15;;
50319;SDS011;36226;53.464;9.852;2023-02-28T01:01:09;5.35;;;1.90;;
50319;SDS011;36226;53.464;9.852;2023-02-28T01:03:34;3.58;;;1.67;;
50319;SDS011;36226;53.464;9.852;2023-02-28T01:06:00;5.50;;;2.08;;
50319;SDS011;36226;53.464;9.852;2023-02-28T01:08:26;4.43;;;1.63;;
50319;SDS011;36226;53.464;9.852;2023-02-28T01:10:52;6.10;;;1.70;;
50319;SDS011;36226;53.464;9.852;2023-02-28T01:13:18;6.57;;;1.88;;
50319;SDS011;36226;53.464;9.852;2023-02-28T01:15:51;6.80;;;2.08;;
50319;SDS011;36226;53.464;9.852;2023-02-28T01:18:20;5.10;;;1.80;;
50319;SDS011;36226;53.464;9.852;2023-02-28T01:20:46;3.90;;;1.60;;
50319;SDS011;36226;53.464;9.852;2023-02-28T01:23:11;2.95;;;1.73;;
50319;SDS011;36226;53.464;9.852;2023-02-28T01:25:37;3.80;;;1.70;;
50319;SDS011;36226;53.464;9.852;2023-02-28T01:28:02;4.30;;;1.60;;
50319;SDS011;36226;53.464;9.852;2023-02-28T01:30:28;3.95;;;1.73;;
50319;SDS011;36226;53.464;9.852;2023-02-28T01:32:54;3.63;;;1.70;;
50319;SDS011;36226;53.464;9.852;2023-02-28T01:35:19;3.70;;;1.67;;
50319;SDS011;36226;53.464;9.852;2023-02-28T01:37:48;3.63;;;1.50;;
50319;SDS011;36226;53.464;9.852;2023-02-28T01:40:13;3.60;;;1.50;;
50319;SDS011;36226;53.464;9.852;2023-02-28T01:42:39;4.55;;;1.48;;
50319;SDS011;36226;53.464;9.852;2023-02-28T01:45:07;5.82;;;1.30;;
50319;SDS011;36226;53.464;9.852;2023-02-28T01:47:42;3.58;;;1.27;;
50319;SDS011;36226;53.464;9.852;2023-02-28T01:50:09;2.33;;;1.23;;
50319;SDS011;36226;53.464;9.852;2023-02-28T01:52:38;3.25;;;1.33;;
50319;SDS011;36226;53.464;9.852;2023-02-28T01:55:04;2.63;;;1.08;;
50319;SDS011;36226;53.464;9.852;2023-02-28T01:57:32;3.78;;;1.05;;
50319;SDS011;36226;53.464;9.852;2023-02-28T02:00:08;3.55;;;1.20;;
50319;SDS011;36226;53.464;9.852;2023-02-28T02:02:35;2.67;;;0.98;;
50319;SDS011;36226;53.464;9.852;2023-02-28T02:05:06;2.25;;;1.13;;
50319;SDS011;36226;53.464;9.852;2023-02-28T02:07:36;3.13;;;1.20;;
50319;SDS011;36226;53.464;9.852;2023-02-28T02:10:14;2.88;;;1.10;;
50319;SDS011;36226;53.464;9.852;2023-02-28T02:15:49;3.03;;;1.17;;
50319;SDS011;36226;53.464;9.852;2023-02-28T02:18:23;4.75;;;1.20;;
50319;SDS011;36226;53.464;9.852;2023-02-28T02:36:27;2.40;;;0.98;;
50319;SDS011;36226;53.464;9.852;2023-02-28T02:41:28;3.67;;;1.33;;
50319;SDS011;36226;53.464;9.852;2023-02-28T02:43:58;1.80;;;1.05;;
50319;SDS011;36226;53.464;9.852;2023-02-28T02:46:30;2.33;;;1.00;;
50319;SDS011;36226;53.464;9.852;2023-02-28T02:48:57;2.03;;;1.05;;
50319;SDS011;36226;53.464;9.852;2023-02-28T02:51:24;3.58;;;1.08;;
50319;SDS011;36226;53.464;9.852;2023-02-28T02:53:53;3.28;;;0.90;;
50319;SDS011;36226;53.464;9.852;2023-02-28T02:56:25;4.68;;;0.98;;
50319;SDS011;36226;53.464;9.852;2023-02-28T02:58:53;2.83;;;1.35;;
50319;SDS011;36226;53.464;9.852;2023-02-28T03:01:21;3.35;;;1.15;;
50319;SDS011;36226;53.464;9.852;2023-02-28T03:04:02;3.60;;;1.10;;
50319;SDS011;36226;53.464;9.852;2023-02-28T03:06:30;2.50;;;1.15;;
50319;SDS011;36226;53.464;9.852;2023-02-28T03:08:56;2.95;;;0.95;;
50319;SDS011;36226;53.464;9.852;2023-02-28T03:11:21;2.58;;;1.08;;
50319;SDS011;36226;53.464;9.852;2023-02-28T03:27:30;2.97;;;1.02;;
50319;SDS011;36226;53.464;9.852;2023-02-28T03:30:18;1.70;;;1.05;;
50319;SDS011;36226;53.464;9.852;2023-02-28T03:32:55;2.60;;;1.15;;
50319;SDS011;36226;53.464;9.852;2023-02-28T03:35:25;3.70;;;1.15;;
50319;SDS011;36226;53.464;9.852;2023-02-28T03:37:55;2.03;;;0.93;;
50319;SDS011;36226;53.464;9.852;2023-02-28T03:40:27;2.08;;;1.00;;
50319;SDS011;36226;53.464;9.852;2023-02-28T03:42:55;4.35;;;1.20;;
50319;SDS011;36226;53.464;9.852;2023-02-28T03:45:25;3.63;;;1.33;;
50319;SDS011;36226;53.464;9.852;2023-02-28T03:47:53;1.90;;;1.17;;
50319;SDS011;36226;53.464;9.852;2023-02-28T03:50:22;2.63;;;1.10;;
50319;SDS011;36226;53.464;9.852;2023-02-28T03:52:55;6.10;;;1.75;;
50319;SDS011;36226;53.464;9.852;2023-02-28T03:55:26;2.15;;;0.90;;
50319;SDS011;36226;53.464;9.852;2023-02-28T04:00:47;6.25;;;1.45;;
50319;SDS011;36226;53.464;9.852;2023-02-28T04:03:15;4.82;;;1.10;;
50319;SDS011;36226;53.464;9.852;2023-02-28T04:05:50;4.55;;;1.42;;
50319;SDS011;36226;53.464;9.852;2023-02-28T04:08:17;1.83;;;1.10;;
50319;SDS011;36226;53.464;9.852;2023-02-28T04:10:43;4.45;;;0.98;;
50319;SDS011;36226;53.464;9.852;2023-02-28T04:13:10;5.68;;;1.10;;
50319;SDS011;36226;53.464;9.852;2023-02-28T04:15:36;2.40;;;1.10;;
50319;SDS011;36226;53.464;9.852;2023-02-28T04:18:01;4.22;;;1.10;;
50319;SDS011;36226;53.464;9.852;2023-02-28T04:20:27;1.80;;;0.90;;
50319;SDS011;36226;53.464;9.852;2023-02-28T04:22:53;3.33;;;1.02;;
50319;SDS011;36226;53.464;9.852;2023-02-28T04:25:18;2.97;;;1.00;;
50319;SDS011;36226;53.464;9.852;2023-02-28T04:27:43;3.13;;;0.90;;
50319;SDS011;36226;53.464;9.852;2023-02-28T04:30:09;2.80;;;1.20;;
50319;SDS011;36226;53.464;9.852;2023-02-28T04:32:35;2.22;;;0.80;;
50319;SDS011;36226;53.464;9.852;2023-02-28T04:35:01;3.58;;;1.17;;
50319;SDS011;36226;53.464;9.852;2023-02-28T04:37:27;2.97;;;0.88;;
50319;SDS011;36226;53.464;9.852;2023-02-28T04:39:53;2.00;;;0.80;;
50319;SDS011;36226;53.464;9.852;2023-02-28T04:42:19;3.10;;;1.23;;
50319;SDS011;36226;53.464;9.852;2023-02-28T04:44:45;2.63;;;0.95;;
50319;SDS011;36226;53.464;9.852;2023-02-28T04:47:10;1.40;;;0.68;;
50319;SDS011;36226;53.464;9.852;2023-02-28T04:49:35;2.70;;;0.80;;
50319;SDS011;36226;53.464;9.852;2023-02-28T04:52:01;2.70;;;1.00;;
50319;SDS011;36226;53.464;9.852;2023-02-28T04:54:26;4.90;;;1.00;;
50319;SDS011;36226;53.464;9.852;2023-02-28T04:56:53;2.33;;;1.25;;
50319;SDS011;36226;53.464;9.852;2023-02-28T04:59:19;1.08;;;0.80;;
50319;SDS011;36226;53.464;9.852;2023-02-28T05:01:46;3.17;;;0.70;;
50319;SDS011;36226;53.464;9.852;2023-02-28T05:04:12;1.55;;;0.80;;
50319;SDS011;36226;53.464;9.852;2023-02-28T05:06:37;1.92;;;0.90;;
50319;SDS011;36226;53.464;9.852;2023-02-28T05:09:02;3.75;;;0.80;;
50319;SDS011;36226;53.464;9.852;2023-02-28T05:11:29;2.90;;;0.85;;
50319;SDS011;36226;53.464;9.852;2023-02-28T05:13:59;2.20;;;0.90;;
50319;SDS011;36226;53.464;9.852;2023-02-28T05:16:25;3.13;;;0.98;;
50319;SDS011;36226;53.464;9.852;2023-02-28T05:18:50;3.20;;;1.02;;
50319;SDS011;36226;53.464;9.852;2023-02-28T05:21:31;3.08;;;0.90;;
50319;SDS011;36226;53.464;9.852;2023-02-28T05:24:01;1.70;;;0.90;;
50319;SDS011;36226;53.464;9.852;2023-02-28T05:26:29;2.67;;;0.80;;
50319;SDS011;36226;53.464;9.852;2023-02-28T05:28:54;1.95;;;0.85;;
50319;SDS011;36226;53.464;9.852;2023-02-28T05:31:20;1.33;;;0.80;;
50319;SDS011;36226;53.464;9.852;2023-02-28T05:33:45;3.35;;;0.90;;
50319;SDS011;36226;53.464;9.852;2023-02-28T05:36:11;1.55;;;0.90;;
50319;SDS011;36226;53.464;9.852;2023-02-28T05:38:36;1.92;;;1.00;;
50319;SDS011;36226;53.464;9.852;2023-02-28T05:41:05;3.42;;;1.00;;
50319;SDS011;36226;53.464;9.852;2023-02-28T05:43:35;1.45;;;0.80;;
50319;SDS011;36226;53.464;9.852;2023-02-28T05:46:04;1.27;;;0.80;;
50319;SDS011;36226;53.464;9.852;2023-02-28T05:48:30;3.08;;;1.05;;
50319;SDS011;36226;53.464;9.852;2023-02-28T05:50:56;1.27;;;0.63;;
50319;SDS011;36226;53.464;9.852;2023-02-28T05:53:23;1.83;;;0.93;;
50319;SDS011;36226;53.464;9.852;2023-02-28T05:55:48;1.77;;;1.00;;
50319;SDS011;36226;53.464;9.852;2023-02-28T05:58:14;2.88;;;1.00;;
50319;SDS011;36226;53.464;9.852;2023-02-28T06:00:39;3.20;;;0.70;;
50319;SDS011;36226;53.464;9.852;2023-02-28T06:03:05;1.75;;;0.70;;
50319;SDS011;36226;53.464;9.852;2023-02-28T06:05:30;2.70;;;0.73;;
50319;SDS011;36226;53.464;9.852;2023-02-28T06:07:55;1.60;;;0.90;;
50319;SDS011;36226;53.464;9.852;2023-02-28T06:10:20;1.60;;;0.80;;
50319;SDS011;36226;53.464;9.852;2023-02-28T06:12:46;1.73;;;0.80;;
50319;SDS011;36226;53.464;9.852;2023-02-28T06:15:12;3.33;;;0.85;;
50319;SDS011;36226;53.464;9.852;2023-02-28T06:17:39;1.70;;;0.80;;
50319;SDS011;36226;53.464;9.852;2023-02-28T06:20:06;1.00;;;0.60;;
50319;SDS011;36226;53.464;9.852;2023-02-28T06:22:32;1.88;;;0.63;;
50319;SDS011;36226;53.464;9.852;2023-02-28T06:24:57;1.50;;;0.80;;
50319;SDS011;36226;53.464;9.852;2023-02-28T06:27:23;2.50;;;0.82;;
50319;SDS011;36226;53.464;9.852;2023-02-28T06:29:48;3.10;;;1.20;;
50319;SDS011;36226;53.464;9.852;2023-02-28T06:32:14;1.95;;;0.85;;
50319;SDS011;36226;53.464;9.852;2023-02-28T06:34:39;3.58;;;1.05;;
50319;SDS011;36226;53.464;9.852;2023-02-28T06:37:04;4.35;;;0.90;;
50319;SDS011;36226;53.464;9.852;2023-02-28T06:39:30;2.53;;;1.10;;
50319;SDS011;36226;53.464;9.852;2023-02-28T06:41:56;3.17;;;1.00;;
50319;SDS011;36226;53.464;9.852;2023-02-28T06:44:21;1.98;;;0.93;;
50319;SDS011;36226;53.464;9.852;2023-02-28T06:46:47;2.17;;;0.90;;
50319;SDS011;36226;53.464;9.852;2023-02-28T06:49:13;1.42;;;0.77;;
50319;SDS011;36226;53.464;9.852;2023-02-28T06:51:40;2.03;;;0.90;;
50319;SDS011;36226;53.464;9.852;2023-02-28T06:54:09;1.20;;;0.68;;
50319;SDS011;36226;53.464;9.852;2023-02-28T06:56:35;2.05;;;0.90;;
50319;SDS011;36226;53.464;9.852;2023-02-28T06:59:00;3.05;;;0.90;;
50319;SDS011;36226;53.464;9.852;2023-02-28T07:01:26;2.58;;;0.80;;
50319;SDS011;36226;53.464;9.852;2023-02-28T07:03:52;1.60;;;0.80;;
50319;SDS011;36226;53.464;9.852;2023-02-28T07:06:19;1.52;;;0.80;;
50319;SDS011;36226;53.464;9.852;2023-02-28T07:08:45;4.75;;;0.95;;
50319;SDS011;36226;53.464;9.852;2023-02-28T07:11:11;3.85;;;0.90;;
50319;SDS011;36226;53.464;9.852;2023-02-28T07:13:36;2.30;;;0.90;;
50319;SDS011;36226;53.464;9.852;2023-02-28T07:16:03;2.20;;;1.00;;
50319;SDS011;36226;53.464;9.852;2023-02-28T07:18:30;1.95;;;1.10;;
50319;SDS011;36226;53.464;9.852;2023-02-28T07:21:01;2.97;;;1.15;;
50319;SDS011;36226;53.464;9.852;2023-02-28T07:23:27;4.10;;;1.30;;
50319;SDS011;36226;53.464;9.852;2023-02-28T07:25:52;3.53;;;1.50;;
50319;SDS011;36226;53.464;9.852;2023-02-28T07:28:18;3.40;;;1.52;;
50319;SDS011;36226;53.464;9.852;2023-02-28T07:30:43;2.85;;;1.42;;
50319;SDS011;36226;53.464;9.852;2023-02-28T07:33:09;4.75;;;1.73;;
50319;SDS011;36226;53.464;9.852;2023-02-28T07:35:34;3.72;;;1.88;;
50319;SDS011;36226;53.464;9.852;2023-02-28T07:37:59;5.18;;;2.30;;
50319;SDS011;36226;53.464;9.852;2023-02-28T07:40:25;8.27;;;3.40;;
50319;SDS011;36226;53.464;9.852;2023-02-28T07:42:51;8.50;;;3.38;;
50319;SDS011;36226;53.464;9.852;2023-02-28T07:45:17;14.07;;;4.95;;
50319;SDS011;36226;53.464;9.852;2023-02-28T07:47:44;13.05;;;5.55;;
50319;SDS011;36226;53.464;9.852;2023-02-28T07:50:11;12.02;;;5.45;;
50319;SDS011;36226;53.464;9.852;2023-02-28T07:52:37;9.45;;;4.43;;
50319;SDS011;36226;53.464;9.852;2023-02-28T07:55:04;14.57;;;4.72;;
50319;SDS011;36226;53.464;9.852;2023-02-28T07:57:30;15.48;;;6.40;;
50319;SDS011;36226;53.464;9.852;2023-02-28T07:59:55;13.10;;;4.90;;
50319;SDS011;36226;53.464;9.852;2023-02-28T08:02:21;18.48;;;7.47;;
50319;SDS011;36226;53.464;9.852;2023-02-28T08:04:46;14.50;;;4.78;;
50319;SDS011;36226;53.464;9.852;2023-02-28T08:07:13;7.78;;;3.28;;
50319;SDS011;36226;53.464;9.852;2023-02-28T08:09:41;9.38;;;4.00;;
50319;SDS011;36226;53.464;9.852;2023-02-28T08:12:07;16.58;;;6.60;;
50319;SDS011;36226;53.464;9.852;2023-02-28T08:14:33;23.63;;;7.07;;
50319;SDS011;36226;53.464;9.852;2023-02-28T08:16:59;20.42;;;8.18;;
50319;SDS011;36226;53.464;9.852;2023-02-28T08:19:24;24.63;;;8.10;;
50319;SDS011;36226;53.464;9.852;2023-02-28T08:21:50;15.77;;;6.07;;
50319;SDS011;36226;53.464;9.852;2023-02-28T08:24:15;13.82;;;5.25;;
50319;SDS011;36226;53.464;9.852;2023-02-28T08:26:40;12.68;;;4.93;;
50319;SDS011;36226;53.464;9.852;2023-02-28T08:29:06;8.20;;;3.53;;
50319;SDS011;36226;53.464;9.852;2023-02-28T08:31:31;6.82;;;3.05;;
50319;SDS011;36226;53.464;9.852;2023-02-28T08:33:56;5.22;;;2.70;;
50319;SDS011;36226;53.464;9.852;2023-02-28T08:36:24;4.90;;;2.50;;
50319;SDS011;36226;53.464;9.852;2023-02-28T08:38:50;7.05;;;2.70;;
50319;SDS011;36226;53.464;9.852;2023-02-28T08:41:15;5.53;;;2.35;;
50319;SDS011;36226;53.464;9.852;2023-02-28T08:43:40;5.00;;;2.40;;
50319;SDS011;36226;53.464;9.852;2023-02-28T08:46:06;5.57;;;2.35;;
50319;SDS011;36226;53.464;9.852;2023-02-28T08:48:32;5.20;;;2.33;;
50319;SDS011;36226;53.464;9.852;2023-02-28T08:51:00;5.25;;;1.80;;
50319;SDS011;36226;53.464;9.852;2023-02-28T08:53:27;5.60;;;3.00;;
50319;SDS011;36226;53.464;9.852;2023-02-28T08:55:59;2.47;;;1.20;;
50319;SDS011;36226;53.464;9.852;2023-02-28T08:58:25;1.10;;;0.50;;
50319;SDS011;36226;53.464;9.852;2023-02-28T09:00:51;1.40;;;0.75;;
50319;SDS011;36226;53.464;9.852;2023-02-28T09:03:17;3.67;;;0.60;;
50319;SDS011;36226;53.464;9.852;2023-02-28T09:05:59;1.75;;;0.50;;
50319;SDS011;36226;53.464;9.852;2023-02-28T09:08:26;1.88;;;0.60;;
50319;SDS011;36226;53.464;9.852;2023-02-28T09:10:54;1.02;;;0.45;;
50319;SDS011;36226;53.464;9.852;2023-02-28T09:13:22;1.80;;;0.47;;
50319;SDS011;36226;53.464;9.852;2023-02-28T09:15:48;1.67;;;0.60;;
50319;SDS011;36226;53.464;9.852;2023-02-28T09:24:03;2.40;;;0.40;;
50319;SDS011;36226;53.464;9.852;2023-02-28T09:26:28;1.50;;;0.40;;
50319;SDS011;36226;53.464;9.852;2023-02-28T09:28:54;2.42;;;1.10;;
50319;SDS011;36226;53.464;9.852;2023-02-28T09:31:21;3.67;;;2.10;;
50319;SDS011;36226;53.464;9.852;2023-02-28T09:33:49;3.65;;;2.65;;
50319;SDS011;36226;53.464;9.852;2023-02-28T09:36:16;2.20;;;1.15;;
50319;SDS011;36226;53.464;9.852;2023-02-28T09:38:41;1.52;;;0.68;;
50319;SDS011;36226;53.464;9.852;2023-02-28T09:41:15;0.75;;;0.50;;
50319;SDS011;36226;53.464;9.852;2023-02-28T09:43:46;0.90;;;0.43;;
50319;SDS011;36226;53.464;9.852;2023-02-28T09:46:21;0.57;;;0.40;;
50319;SDS011;36226;53.464;9.852;2023-02-28T09:48:53;1.60;;;0.60;;
50319;SDS011;36226;53.464;9.852;2023-02-28T09:51:30;1.83;;;0.60;;
50319;SDS011;36226;53.464;9.852;2023-02-28T09:54:00;0.82;;;0.60;;
50319;SDS011;36226;53.464;9.852;2023-02-28T09:56:33;1.60;;;0.90;;
50319;SDS011;36226;53.464;9.852;2023-02-28T09:59:03;1.15;;;0.60;;
50319;SDS011;36226;53.464;9.852;2023-02-28T10:04:18;3.60;;;1.48;;
50319;SDS011;36226;53.464;9.852;2023-02-28T10:06:50;2.95;;;0.90;;
50319;SDS011;36226;53.464;9.852;2023-02-28T10:09:26;1.58;;;1.13;;
50319;SDS011;36226;53.464;9.852;2023-02-28T10:11:56;0.70;;;0.50;;
50319;SDS011;36226;53.464;9.852;2023-02-28T10:14:26;0.90;;;0.60;;
50319;SDS011;36226;53.464;9.852;2023-02-28T10:16:55;2.10;;;0.88;;
50319;SDS011;36226;53.464;9.852;2023-02-28T10:22:12;2.20;;;0.80;;
50319;SDS011;36226;53.464;9.852;2023-02-28T10:24:47;1.85;;;0.50;;
50319;SDS011;36226;53.464;9.852;2023-02-28T10:27:22;1.83;;;0.70;;
50319;SDS011;36226;53.464;9.852;2023-02-28T10:29:54;1.40;;;0.65;;
50319;SDS011;36226;53.464;9.852;2023-02-28T10:37:41;2.78;;;0.63;;
50319;SDS011;36226;53.464;9.852;2023-02-28T10:40:25;2.20;;;0.75;;
50319;SDS011;36226;53.464;9.852;2023-02-28T10:43:00;2.85;;;0.70;;
50319;SDS011;36226;53.464;9.852;2023-02-28T10:45:30;2.72;;;0.70;;
50319;SDS011;36226;53.464;9.852;2023-02-28T11:01:16;2.17;;;0.55;;
50319;SDS011;36226;53.464;9.852;2023-02-28T11:03:46;1.23;;;0.70;;
50319;SDS011;36226;53.464;9.852;2023-02-28T11:06:16;2.03;;;0.70;;
50319;SDS011;36226;53.464;9.852;2023-02-28T11:08:51;1.50;;;0.70;;
50319;SDS011;36226;53.464;9.852;2023-02-28T11:11:18;1.38;;;0.70;;
50319;SDS011;36226;53.464;9.852;2023-02-28T11:13:46;0.80;;;0.52;;
50319;SDS011;36226;53.464;9.852;2023-02-28T11:16:12;1.45;;;0.68;;
50319;SDS011;36226;53.464;9.852;2023-02-28T11:21:25;1.65;;;0.70;;
50319;SDS011;36226;53.464;9.852;2023-02-28T11:23:56;1.98;;;0.70;;
50319;SDS011;36226;53.464;9.852;2023-02-28T11:26:48;1.63;;;0.50;;
50319;SDS011;36226;53.464;9.852;2023-02-28T11:32:04;5.10;;;1.75;;
50319;SDS011;36226;53.464;9.852;2023-02-28T11:34:30;1.70;;;0.85;;
50319;SDS011;36226;53.464;9.852;2023-02-28T11:36:57;4.85;;;1.30;;
50319;SDS011;36226;53.464;9.852;2023-02-28T11:39:24;2.50;;;0.98;;
50319;SDS011;36226;53.464;9.852;2023-02-28T11:44:50;2.92;;;1.80;;
50319;SDS011;36226;53.464;9.852;2023-02-28T11:47:31;1.10;;;0.70;;
50319;SDS011;36226;53.464;9.852;2023-02-28T11:50:22;2.88;;;1.60;;
50319;SDS011;36226;53.464;9.852;2023-02-28T11:53:00;4.47;;;0.73;;
50319;SDS011;36226;53.464;9.852;2023-02-28T11:55:28;0.93;;;0.70;;
50319;SDS011;36226;53.464;9.852;2023-02-28T11:58:11;2.08;;;1.10;;
50319;SDS011;36226;53.464;9.852;2023-02-28T12:09:12;2.83;;;1.25;;
50319;SDS011;36226;53.464;9.852;2023-02-28T12:11:56;4.25;;;1.30;;
50319;SDS011;36226;53.464;9.852;2023-02-28T12:20:18;3.70;;;1.20;;
50319;SDS011;36226;53.464;9.852;2023-02-28T12:28:52;2.10;;;1.20;;
50319;SDS011;36226;53.464;9.852;2023-02-28T12:34:07;3.38;;;1.40;;
50319;SDS011;36226;53.464;9.852;2023-02-28T12:36:35;2.55;;;1.30;;
50319;SDS011;36226;53.464;9.852;2023-02-28T12:39:08;3.35;;;1.45;;
50319;SDS011;36226;53.464;9.852;2023-02-28T12:44:20;3.45;;;1.25;;
50319;SDS011;36226;53.464;9.852;2023-02-28T12:46:49;3.50;;;1.10;;
50319;SDS011;36226;53.464;9.852;2023-02-28T12:49:17;3.28;;;1.65;;
50319;SDS011;36226;53.464;9.852;2023-02-28T12:51:47;3.67;;;1.60;;
50319;SDS011;36226;53.464;9.852;2023-02-28T12:56:43;2.72;;;1.30;;
50319;SDS011;36226;53.464;9.852;2023-02-28T12:59:56;2.30;;;1.73;;
50319;SDS011;36226;53.464;9.852;2023-02-28T13:07:28;3.08;;;1.13;;
50319;SDS011;36226;53.464;9.852;2023-02-28T13:09:57;2.78;;;0.95;;
50319;SDS011;36226;53.464;9.852;2023-02-28T13:12:25;3.05;;;0.80;;
50319;SDS011;36226;53.464;9.852;2023-02-28T13:14:51;1.38;;;0.90;;
50319;SDS011;36226;53.464;9.852;2023-02-28T13:17:36;3.08;;;1.00;;
50319;SDS011;36226;53.464;9.852;2023-02-28T13:20:02;2.25;;;0.77;;
50319;SDS011;36226;53.464;9.852;2023-02-28T13:27:54;1.70;;;0.82;;
50319;SDS011;36226;53.464;9.852;2023-02-28T13:33:24;1.52;;;0.80;;
50319;SDS011;36226;53.464;9.852;2023-02-28T13:38:33;1.67;;;0.85;;
50319;SDS011;36226;53.464;9.852;2023-02-28T13:46:34;2.33;;;0.75;;
50319;SDS011;36226;53.464;9.852;2023-02-28T13:51:45;1.67;;;0.80;;
50319;SDS011;36226;53.464;9.852;2023-02-28T13:56:52;2.45;;;0.80;;
50319;SDS011;36226;53.464;9.852;2023-02-28T13:59:27;1.08;;;0.80;;
50319;SDS011;36226;53.464;9.852;2023-02-28T14:04:44;2.00;;;0.65;;
50319;SDS011;36226;53.464;9.852;2023-02-28T14:07:18;1.60;;;0.80;;
50319;SDS011;36226;53.464;9.852;2023-02-28T14:09:55;3.00;;;0.68;;
50319;SDS011;36226;53.464;9.852;2023-02-28T14:15:40;1.65;;;0.82;;
50319;SDS011;36226;53.464;9.852;2023-02-28T14:18:21;2.03;;;0.80;;
50319;SDS011;36226;53.464;9.852;2023-02-28T14:20:48;1.65;;;0.95;;
50319;SDS011;36226;53.464;9.852;2023-02-28T14:23:43;1.85;;;0.80;;
50319;SDS011;36226;53.464;9.852;2023-02-28T14:29:18;2.72;;;1.13;;
50319;SDS011;36226;53.464;9.852;2023-02-28T14:35:10;6.55;;;1.13;;
50319;SDS011;36226;53.464;9.852;2023-02-28T14:37:41;1.65;;;0.90;;
50319;SDS011;36226;53.464;9.852;2023-02-28T14:40:26;2.28;;;1.20;;
50319;SDS011;36226;53.464;9.852;2023-02-28T14:45:27;6.28;;;1.08;;
50319;SDS011;36226;53.464;9.852;2023-02-28T14:47:55;1.65;;;1.00;;
50319;SDS011;36226;53.464;9.852;2023-02-28T14:50:22;2.65;;;1.20;;
50319;SDS011;36226;53.464;9.852;2023-02-28T14:52:53;2.83;;;1.00;;
50319;SDS011;36226;53.464;9.852;2023-02-28T14:55:20;1.75;;;0.80;;
50319;SDS011;36226;53.464;9.852;2023-02-28T14:57:53;3.78;;;1.00;;
50319;SDS011;36226;53.464;9.852;2023-02-28T15:02:53;2.72;;;1.30;;
50319;SDS011;36226;53.464;9.852;2023-02-28T15:05:27;2.78;;;0.98;;
50319;SDS011;36226;53.464;9.852;2023-02-28T15:16:04;2.33;;;1.38;;
50319;SDS011;36226;53.464;9.852;2023-02-28T15:21:21;5.10;;;1.52;;
50319;SDS011;36226;53.464;9.852;2023-02-28T15:24:07;4.28;;;1.50;;
50319;SDS011;36226;53.464;9.852;2023-02-28T15:26:57;4.15;;;1.60;;
50319;SDS011;36226;53.464;9.852;2023-02-28T15:29:25;4.35;;;1.55;;
50319;SDS011;36226;53.464;9.852;2023-02-28T15:32:02;3.08;;;1.75;;
50319;SDS011;36226;53.464;9.852;2023-02-28T15:34:34;2.22;;;1.40;;
50319;SDS011;36226;53.464;9.852;2023-02-28T15:37:00;2.67;;;1.20;;
50319;SDS011;36226;53.464;9.852;2023-02-28T15:39:26;2.40;;;1.13;;
50319;SDS011;36226;53.464;9.852;2023-02-28T15:42:09;4.00;;;1.15;;
50319;SDS011;36226;53.464;9.852;2023-02-28T15:44:38;3.33;;;1.30;;
50319;SDS011;36226;53.464;9.852;2023-02-28T15:47:04;2.13;;;1.13;;
50319;SDS011;36226;53.464;9.852;2023-02-28T15:49:48;2.38;;;1.30;;
50319;SDS011;36226;53.464;9.852;2023-02-28T15:52:16;2.63;;;1.20;;
50319;SDS011;36226;53.464;9.852;2023-02-28T15:54:53;1.67;;;1.08;;
50319;SDS011;36226;53.464;9.852;2023-02-28T15:57:20;1.60;;;1.02;;
50319;SDS011;36226;53.464;9.852;2023-02-28T15:59:51;2.70;;;0.98;;
50319;SDS011;36226;53.464;9.852;2023-02-28T16:02:34;3.90;;;1.00;;
50319;SDS011;36226;53.464;9.852;2023-02-28T16:07:32;2.22;;;1.10;;
50319;SDS011;36226;53.464;9.852;2023-02-28T16:09:59;1.88;;;1.23;;
50319;SDS011;36226;53.464;9.852;2023-02-28T16:12:26;2.13;;;1.20;;
50319;SDS011;36226;53.464;9.852;2023-02-28T16:14:54;3.35;;;1.25;;
50319;SDS011;36226;53.464;9.852;2023-02-28T16:17:22;2.60;;;1.50;;
50319;SDS011;36226;53.464;9.852;2023-02-28T16:19:51;1.58;;;1.30;;
50319;SDS011;36226;53.464;9.852;2023-02-28T16:22:16;3.47;;;1.70;;
50319;SDS011;36226;53.464;9.852;2023-02-28T16:24:42;2.70;;;1.45;;
50319;SDS011;36226;53.464;9.852;2023-02-28T16:27:10;2.55;;;1.45;;
50319;SDS011;36226;53.464;9.852;2023-02-28T16:29:41;4.65;;;1.83;;
50319;SDS011;36226;53.464;9.852;2023-02-28T16:32:06;3.75;;;1.60;;
50319;SDS011;36226;53.464;9.852;2023-02-28T16:34:32;3.30;;;1.40;;
50319;SDS011;36226;53.464;9.852;2023-02-28T16:36:57;3.08;;;1.35;;
50319;SDS011;36226;53.464;9.852;2023-02-28T16:39:23;4.07;;;1.38;;
50319;SDS011;36226;53.464;9.852;2023-02-28T16:41:49;2.45;;;1.38;;
50319;SDS011;36226;53.464;9.852;2023-02-28T16:44:21;2.63;;;1.30;;
50319;SDS011;36226;53.464;9.852;2023-02-28T16:46:52;3.42;;;1.65;;
50319;SDS011;36226;53.464;9.852;2023-02-28T16:49:17;1.70;;;1.02;;
50319;SDS011;36226;53.464;9.852;2023-02-28T16:51:43;2.55;;;1.02;;
50319;SDS011;36226;53.464;9.852;2023-02-28T16:54:08;2.80;;;1.10;;
50319;SDS011;36226;53.464;9.852;2023-02-28T16:56:33;3.22;;;1.48;;
50319;SDS011;36226;53.464;9.852;2023-02-28T16:58:59;2.05;;;1.40;;
50319;SDS011;36226;53.464;9.852;2023-02-28T17:01:26;2.95;;;1.42;;
50319;SDS011;36226;53.464;9.852;2023-02-28T17:03:52;5.03;;;1.40;;
50319;SDS011;36226;53.464;9.852;2023-02-28T17:06:25;7.65;;;3.08;;
50319;SDS011;36226;53.464;9.852;2023-02-28T17:08:55;11.85;;;5.70;;
50319;SDS011;36226;53.464;9.852;2023-02-28T17:11:21;13.65;;;6.13;;
50319;SDS011;36226;53.464;9.852;2023-02-28T17:13:46;13.38;;;5.60;;
50319;SDS011;36226;53.464;9.852;2023-02-28T17:16:28;8.77;;;4.28;;
50319;SDS011;36226;53.464;9.852;2023-02-28T17:18:57;5.20;;;2.72;;
50319;SDS011;36226;53.464;9.852;2023-02-28T17:21:28;5.68;;;2.60;;
50319;SDS011;36226;53.464;9.852;2023-02-28T17:23:54;5.30;;;2.22;;
50319;SDS011;36226;53.464;9.852;2023-02-28T17:26:20;4.50;;;2.03;;
50319;SDS011;36226;53.464;9.852;2023-02-28T17:28:48;4.45;;;1.95;;
50319;SDS011;36226;53.464;9.852;2023-02-28T17:31:14;5.60;;;2.33;;
50319;SDS011;36226;53.464;9.852;2023-02-28T17:33:39;3.90;;;1.70;;
50319;SDS011;36226;53.464;9.852;2023-02-28T17:36:05;3.75;;;1.73;;
50319;SDS011;36226;53.464;9.852;2023-02-28T17:38:31;3.85;;;1.75;;